createdAt,value
2018-03-16T00:01:34.688Z,19.70
2018-03-16T00:04:02.190Z,19.70
2018-03-16T00:06:29.687Z,19.70
2018-03-16T00:08:57.968Z,19.70
2018-03-16T00:11:26.238Z,19.70
2018-03-16T00:13:54.511Z,19.70
2018-03-16T00:16:22.794Z,19.70
2018-03-16T00:18:51.065Z,19.70
2018-03-16T00:21:18.576Z,19.70
2018-03-16T00:23:46.090Z,19.70
2018-03-16T00:26:13.754Z,19.70
2018-03-16T00:28:41.601Z,19.70
2018-03-16T00:31:09.104Z,19.70
2018-03-16T00:33:37.381Z,19.70
2018-03-16T00:36:05.662Z,19.70
2018-03-16T00:38:33.946Z,19.70
2018-03-16T00:41:02.233Z,19.60
2018-03-16T00:43:30.501Z,19.70
2018-03-16T00:45:58.004Z,19.70
2018-03-16T00:48:25.513Z,19.70
2018-03-16T00:50:53.592Z,19.70
2018-03-16T00:53:21.106Z,19.70
2018-03-16T00:55:49.148Z,19.60
2018-03-16T00:58:17.418Z,19.60
2018-03-16T01:00:44.930Z,19.70
2018-03-16T01:03:12.433Z,19.60
2018-03-16T01:05:39.950Z,19.60
2018-03-16T01:08:07.460Z,19.60
2018-03-16T01:10:34.973Z,19.60
2018-03-16T01:13:02.480Z,19.60
2018-03-16T01:15:29.988Z,19.60
2018-03-16T01:17:57.490Z,19.60
2018-03-16T01:20:27.530Z,19.60
2018-03-16T01:22:55.033Z,19.60
2018-03-16T01:25:22.540Z,19.60
2018-03-16T01:27:50.047Z,19.60
2018-03-16T01:30:18.320Z,19.60
2018-03-16T01:32:46.635Z,19.60
2018-03-16T01:35:14.875Z,19.60
2018-03-16T01:37:43.210Z,19.60
2018-03-16T01:40:10.718Z,19.60
2018-03-16T01:42:38.223Z,19.60
2018-03-16T01:45:05.734Z,19.60
2018-03-16T01:47:33.238Z,19.60
2018-03-16T01:50:00.737Z,19.60
2018-03-16T01:52:28.265Z,19.60
2018-03-16T01:54:55.778Z,19.60
2018-03-16T01:57:23.292Z,19.60
2018-03-16T01:59:50.799Z,19.60
2018-03-16T02:02:18.308Z,19.60
2018-03-16T02:04:46.588Z,19.60
2018-03-16T02:07:14.858Z,19.60
2018-03-16T02:09:43.139Z,19.60
2018-03-16T02:12:11.407Z,19.60
2018-03-16T02:14:38.912Z,19.60
2018-03-16T02:17:06.413Z,19.60
2018-03-16T02:19:34.079Z,19.60
2018-03-16T02:22:01.601Z,19.60
2018-03-16T02:24:29.109Z,19.60
2018-03-16T02:26:56.609Z,19.60
2018-03-16T02:29:24.877Z,19.60
2018-03-16T02:31:53.148Z,19.60
2018-03-16T02:34:20.773Z,19.60
2018-03-16T02:36:48.290Z,19.60
2018-03-16T02:39:16.563Z,19.60
2018-03-16T02:41:44.841Z,19.60
2018-03-16T02:44:12.348Z,19.60
2018-03-16T02:46:39.851Z,19.60
2018-03-16T02:49:07.353Z,19.60
2018-03-16T02:51:34.874Z,19.60
2018-03-16T02:54:02.379Z,19.60
2018-03-16T02:56:30.650Z,19.60
2018-03-16T02:58:58.928Z,19.60
2018-03-16T03:01:27.200Z,19.60
2018-03-16T03:03:54.710Z,19.60
2018-03-16T03:06:22.851Z,19.60
2018-03-16T03:08:51.126Z,19.60
2018-03-16T03:11:19.398Z,19.60
2018-03-16T03:13:46.904Z,19.60
2018-03-16T03:16:14.401Z,19.60
2018-03-16T03:18:42.248Z,19.60
2018-03-16T03:21:09.761Z,19.50
2018-03-16T03:23:37.266Z,19.50
2018-03-16T03:26:04.763Z,19.50
2018-03-16T03:28:32.269Z,19.50
2018-03-16T03:31:00.540Z,19.50
2018-03-16T03:33:28.910Z,19.50
2018-03-16T03:36:08.087Z,19.50
2018-03-16T03:38:35.594Z,19.50
2018-03-16T03:41:03.107Z,19.50
2018-03-16T03:43:30.611Z,19.50
2018-03-16T03:45:58.112Z,19.50
2018-03-16T03:48:26.385Z,19.50
2018-03-16T03:50:54.653Z,19.50
2018-03-16T03:53:22.159Z,19.50
2018-03-16T03:55:49.666Z,19.50
2018-03-16T03:58:17.172Z,19.50
2018-03-16T04:00:44.671Z,19.50
2018-03-16T04:03:12.179Z,19.50
2018-03-16T04:05:40.449Z,19.50
2018-03-16T04:08:07.963Z,19.50
2018-03-16T04:10:35.476Z,19.50
2018-03-16T04:13:02.982Z,19.50
2018-03-16T04:15:30.489Z,19.50
2018-03-16T04:17:57.988Z,19.50
2018-03-16T04:20:25.487Z,19.50
2018-03-16T04:22:52.992Z,19.50
2018-03-16T04:25:20.498Z,19.50
2018-03-16T04:27:47.996Z,19.50
2018-03-16T04:30:15.504Z,19.50
2018-03-16T04:32:43.013Z,19.50
2018-03-16T04:35:11.511Z,19.50
2018-03-16T04:37:39.014Z,19.50
2018-03-16T04:40:06.522Z,19.50
2018-03-16T04:42:34.021Z,19.50
2018-03-16T04:45:02.293Z,19.50
2018-03-16T04:47:29.800Z,19.50
2018-03-16T04:49:57.311Z,19.50
2018-03-16T04:52:24.814Z,19.50
2018-03-16T04:54:52.324Z,19.50
2018-03-16T04:57:19.827Z,19.50
2018-03-16T04:59:48.093Z,19.50
2018-03-16T05:02:15.603Z,19.50
2018-03-16T05:04:43.113Z,19.50
2018-03-16T05:07:10.622Z,19.50
2018-03-16T05:09:38.127Z,19.50
2018-03-16T05:12:05.645Z,19.50
2018-03-16T05:14:33.144Z,19.50
2018-03-16T05:17:00.648Z,19.50
2018-03-16T05:19:28.922Z,19.50
2018-03-16T05:21:57.193Z,19.50
2018-03-16T05:24:24.711Z,19.40
2018-03-16T05:26:52.226Z,19.50
2018-03-16T05:29:20.516Z,19.50
2018-03-16T05:31:48.793Z,19.50
2018-03-16T05:34:17.061Z,19.50
2018-03-16T05:36:44.563Z,19.50
2018-03-16T05:39:12.064Z,19.50
2018-03-16T05:41:39.566Z,19.50
2018-03-16T05:44:07.829Z,19.50
2018-03-16T05:46:35.337Z,19.50
2018-03-16T05:49:02.880Z,19.50
2018-03-16T05:51:30.372Z,19.50
2018-03-16T05:53:57.883Z,19.50
2018-03-16T05:56:25.390Z,19.50
2018-03-16T05:58:52.890Z,19.50
2018-03-16T06:01:20.392Z,19.50
2018-03-16T06:03:48.659Z,19.50
2018-03-16T06:06:16.931Z,19.50
2018-03-16T06:08:44.440Z,19.50
2018-03-16T06:11:11.943Z,19.50
2018-03-16T06:13:39.445Z,19.50
2018-03-16T06:16:06.958Z,19.50
2018-03-16T06:18:34.477Z,19.50
2018-03-16T06:21:01.979Z,19.50
2018-03-16T06:23:29.484Z,19.50
2018-03-16T06:25:57.756Z,19.50
2018-03-16T06:28:25.259Z,19.50
2018-03-16T06:30:52.760Z,19.50
2018-03-16T06:33:21.776Z,19.50
2018-03-16T06:35:50.073Z,19.50
2018-03-16T06:38:18.347Z,19.50
2018-03-16T06:40:46.621Z,19.50
2018-03-16T06:43:14.934Z,19.50
2018-03-16T06:45:43.189Z,19.50
2018-03-16T06:48:11.462Z,19.50
2018-03-16T06:50:39.740Z,19.50
2018-03-16T06:53:07.759Z,19.50
2018-03-16T06:55:35.269Z,19.50
2018-03-16T06:58:02.777Z,19.50
2018-03-16T07:00:30.293Z,19.50
2018-03-16T07:02:57.960Z,19.50
2018-03-16T07:05:25.458Z,19.50
2018-03-16T07:07:52.973Z,19.50
2018-03-16T07:10:21.041Z,19.50
2018-03-16T07:12:48.579Z,19.50
2018-03-16T07:15:28.148Z,19.50
2018-03-16T07:17:55.657Z,19.50
2018-03-16T07:20:23.928Z,19.50
2018-03-16T07:22:52.197Z,19.50
2018-03-16T07:25:20.340Z,19.50
2018-03-16T07:27:47.835Z,19.50
2018-03-16T07:30:16.117Z,19.50
2018-03-16T07:32:43.649Z,19.50
2018-03-16T07:35:11.216Z,19.50
2018-03-16T07:37:38.714Z,19.60
2018-03-16T07:40:06.294Z,19.60
2018-03-16T07:42:34.574Z,19.60
2018-03-16T07:45:02.864Z,19.60
2018-03-16T07:47:30.374Z,19.60
2018-03-16T07:49:58.104Z,19.60
2018-03-16T07:52:25.619Z,19.70
2018-03-16T07:54:53.121Z,19.70
2018-03-16T07:57:20.621Z,19.70
2018-03-16T07:59:48.141Z,19.60
2018-03-16T08:02:16.411Z,19.60
2018-03-16T08:04:44.688Z,19.60
2018-03-16T08:07:12.958Z,19.60
2018-03-16T08:09:40.466Z,19.60
2018-03-16T08:12:07.986Z,19.60
2018-03-16T08:14:35.493Z,19.60
2018-03-16T08:17:02.992Z,19.60
2018-03-16T08:19:30.506Z,19.60
2018-03-16T08:21:58.008Z,19.60
2018-03-16T08:24:25.520Z,19.60
2018-03-16T08:26:53.787Z,19.60
2018-03-16T08:29:22.059Z,19.60
2018-03-16T08:31:51.553Z,19.60
2018-03-16T08:34:19.056Z,19.60
2018-03-16T08:36:47.331Z,19.70
2018-03-16T08:39:15.602Z,19.70
2018-03-16T08:41:43.876Z,19.70
2018-03-16T08:44:11.384Z,19.70
2018-03-16T08:46:38.905Z,19.60
2018-03-16T08:49:06.424Z,19.70
2018-03-16T08:51:33.928Z,19.70
2018-03-16T08:54:01.434Z,19.70
2018-03-16T08:56:28.942Z,19.70
2018-03-16T08:58:56.446Z,19.70
2018-03-16T09:01:23.949Z,19.70
2018-03-16T09:03:51.449Z,19.70
2018-03-16T09:06:19.724Z,19.70
2018-03-16T09:08:47.230Z,19.70
2018-03-16T09:11:14.732Z,19.70
2018-03-16T09:13:42.234Z,19.70
2018-03-16T09:16:10.499Z,19.80
2018-03-16T09:18:38.761Z,19.80
2018-03-16T09:21:06.694Z,19.80
2018-03-16T09:23:34.200Z,19.80
2018-03-16T09:26:01.704Z,19.80
2018-03-16T09:28:29.225Z,19.80
2018-03-16T09:30:56.731Z,19.80
2018-03-16T09:33:24.242Z,19.80
2018-03-16T09:35:51.778Z,19.80
2018-03-16T09:38:19.288Z,19.80
2018-03-16T09:40:46.792Z,19.80
2018-03-16T09:43:14.308Z,19.80
2018-03-16T09:45:41.868Z,19.80
2018-03-16T09:48:09.561Z,19.80
2018-03-16T09:50:37.840Z,19.80
2018-03-16T09:53:05.366Z,19.80
2018-03-16T09:55:47.752Z,19.80
2018-03-16T09:58:15.399Z,19.80
2018-03-16T10:00:42.929Z,19.90
2018-03-16T10:03:11.230Z,19.90
2018-03-16T10:05:38.739Z,19.90
2018-03-16T10:08:06.251Z,19.90
2018-03-16T10:10:34.525Z,19.90
2018-03-16T10:13:03.483Z,19.90
2018-03-16T10:15:30.994Z,19.90
2018-03-16T10:17:58.510Z,19.90
2018-03-16T10:20:26.027Z,19.90
2018-03-16T10:22:53.545Z,19.90
2018-03-16T10:25:21.054Z,19.90
2018-03-16T10:27:48.570Z,19.90
2018-03-16T10:30:16.079Z,19.90
2018-03-16T10:32:43.592Z,19.90
2018-03-16T10:35:11.097Z,19.90
2018-03-16T10:37:38.601Z,19.90
2018-03-16T10:40:06.106Z,19.90
2018-03-16T10:42:34.380Z,19.90
2018-03-16T10:45:01.889Z,19.90
2018-03-16T10:47:29.399Z,19.90
2018-03-16T10:49:56.908Z,20.00
2018-03-16T10:52:24.415Z,19.90
2018-03-16T10:54:51.929Z,20.00
2018-03-16T10:57:19.435Z,20.00
2018-03-16T10:59:46.942Z,20.00
2018-03-16T11:02:20.458Z,20.00
2018-03-16T11:04:53.711Z,20.00
2018-03-16T11:07:21.218Z,20.00
2018-03-16T11:09:48.737Z,20.00
2018-03-16T11:12:16.246Z,20.00
2018-03-16T11:14:43.786Z,20.00
2018-03-16T11:17:12.068Z,20.00
2018-03-16T11:19:40.354Z,20.00
2018-03-16T11:22:07.857Z,20.00
2018-03-16T11:24:35.355Z,20.00
2018-03-16T11:27:02.860Z,20.00
2018-03-16T11:29:30.375Z,20.00
2018-03-16T11:31:57.886Z,20.00
2018-03-16T11:34:25.392Z,20.00
2018-03-16T11:36:52.917Z,20.00
2018-03-16T11:39:20.436Z,20.00
2018-03-16T11:41:47.948Z,20.00
2018-03-16T11:44:15.468Z,20.00
2018-03-16T11:46:43.740Z,20.00
2018-03-16T11:49:11.257Z,20.00
2018-03-16T11:51:38.764Z,20.10
2018-03-16T11:54:06.273Z,20.00
2018-03-16T11:56:33.787Z,20.00
2018-03-16T11:59:01.291Z,20.10
2018-03-16T12:01:28.807Z,20.00
2018-03-16T12:03:56.315Z,20.10
2018-03-16T12:06:23.817Z,20.10
2018-03-16T12:08:51.324Z,20.10
2018-03-16T12:11:19.596Z,20.10
2018-03-16T12:13:47.869Z,20.10
2018-03-16T12:16:15.385Z,20.10
2018-03-16T12:18:42.896Z,20.10
2018-03-16T12:21:10.400Z,20.10
2018-03-16T12:23:38.819Z,20.10
2018-03-16T12:26:06.334Z,20.10
2018-03-16T12:28:49.476Z,20.10
2018-03-16T12:31:01.374Z,20.10
2018-03-16T12:33:28.887Z,20.10
2018-03-16T12:35:56.405Z,20.10
2018-03-16T12:38:23.914Z,20.10
2018-03-16T12:40:51.433Z,20.10
2018-03-16T12:43:18.964Z,20.10
2018-03-16T12:45:47.234Z,20.10
2018-03-16T12:48:15.512Z,20.10
2018-03-16T12:50:43.794Z,20.10
2018-03-16T12:53:12.068Z,20.10
2018-03-16T12:55:39.592Z,20.10
2018-03-16T12:58:07.108Z,20.20
2018-03-16T13:00:35.516Z,20.20
2018-03-16T13:03:03.039Z,20.20
2018-03-16T13:05:30.549Z,20.20
2018-03-16T13:07:58.071Z,20.20
2018-03-16T13:10:25.589Z,20.10
2018-03-16T13:12:53.096Z,20.20
2018-03-16T13:15:20.600Z,20.10
2018-03-16T13:17:48.117Z,20.20
2018-03-16T13:20:15.638Z,20.20
2018-03-16T13:22:43.141Z,20.20
2018-03-16T13:25:10.650Z,20.10
2018-03-16T13:27:38.158Z,20.10
2018-03-16T13:30:05.672Z,20.10
2018-03-16T13:32:33.180Z,20.10
2018-03-16T13:35:00.690Z,20.10
2018-03-16T13:37:28.209Z,20.10
2018-03-16T13:39:55.723Z,20.10
2018-03-16T13:42:23.996Z,20.10
2018-03-16T13:44:51.511Z,20.10
2018-03-16T13:47:19.019Z,20.10
2018-03-16T13:49:47.295Z,20.10
2018-03-16T13:52:16.257Z,20.10
2018-03-16T13:54:43.789Z,20.10
2018-03-16T13:57:11.293Z,20.10
2018-03-16T13:59:38.804Z,20.10
2018-03-16T14:02:06.310Z,20.10
2018-03-16T14:04:33.822Z,20.10
2018-03-16T14:07:01.326Z,20.10
2018-03-16T14:09:28.838Z,20.10
2018-03-16T14:11:57.111Z,20.10
2018-03-16T14:14:25.382Z,20.10
2018-03-16T14:16:53.682Z,20.20
2018-03-16T14:19:21.202Z,20.20
2018-03-16T14:21:48.719Z,20.20
2018-03-16T14:24:16.236Z,20.20
2018-03-16T14:26:43.767Z,20.20
2018-03-16T14:29:11.280Z,20.20
2018-03-16T14:31:39.561Z,20.30
2018-03-16T14:34:07.834Z,20.20
2018-03-16T14:36:35.350Z,20.20
2018-03-16T14:39:02.859Z,20.20
2018-03-16T14:41:30.368Z,20.20
2018-03-16T14:43:57.886Z,20.20
2018-03-16T14:46:25.392Z,20.20
2018-03-16T14:48:52.896Z,20.20
2018-03-16T14:51:20.424Z,20.20
2018-03-16T14:53:47.945Z,20.20
2018-03-16T14:56:16.231Z,20.20
2018-03-16T14:58:44.563Z,20.20
2018-03-16T15:01:12.093Z,20.20
2018-03-16T15:03:39.604Z,20.20
2018-03-16T15:06:07.113Z,20.20
2018-03-16T15:08:35.397Z,20.20
2018-03-16T15:11:03.669Z,20.20
2018-03-16T15:13:31.947Z,20.20
2018-03-16T15:16:00.238Z,20.20
2018-03-16T15:18:28.512Z,20.20
2018-03-16T15:20:56.794Z,20.20
2018-03-16T15:23:25.072Z,20.20
2018-03-16T15:25:53.350Z,20.20
2018-03-16T15:28:21.630Z,20.20
2018-03-16T15:30:49.913Z,20.20
2018-03-16T15:33:18.200Z,20.20
2018-03-16T15:35:46.476Z,20.20
2018-03-16T15:38:14.004Z,20.20
2018-03-16T15:40:41.519Z,20.20
2018-03-16T15:43:09.023Z,20.20
2018-03-16T15:45:36.524Z,20.20
2018-03-16T15:48:04.803Z,20.20
2018-03-16T15:50:33.075Z,20.20
2018-03-16T15:53:00.584Z,20.20
2018-03-16T15:55:28.106Z,20.10
2018-03-16T15:57:56.386Z,20.10
2018-03-16T16:00:24.664Z,20.10
2018-03-16T16:02:52.169Z,20.10
2018-03-16T16:05:19.672Z,20.10
2018-03-16T16:07:47.182Z,20.10
2018-03-16T16:10:14.684Z,20.10
2018-03-16T16:12:42.181Z,20.10
2018-03-16T16:15:10.481Z,20.10
2018-03-16T16:17:37.988Z,20.10
2018-03-16T16:20:05.496Z,20.10
2018-03-16T16:22:33.776Z,20.10
2018-03-16T16:25:03.106Z,20.10
2018-03-16T16:27:30.621Z,20.10
2018-03-16T16:29:58.129Z,20.10
2018-03-16T16:32:25.637Z,20.10
2018-03-16T16:34:53.149Z,20.10
2018-03-16T16:37:20.664Z,20.10
2018-03-16T16:39:48.186Z,20.10
2018-03-16T16:42:15.699Z,20.10
2018-03-16T16:44:43.208Z,20.10
2018-03-16T16:47:10.710Z,20.10
2018-03-16T16:49:38.213Z,20.10
2018-03-16T16:52:06.501Z,20.10
2018-03-16T16:54:34.784Z,20.10
2018-03-16T16:57:02.300Z,20.10
2018-03-16T16:59:29.802Z,20.10
2018-03-16T17:01:58.073Z,20.10
2018-03-16T17:04:26.344Z,20.10
2018-03-16T17:06:53.850Z,20.10
2018-03-16T17:09:21.359Z,20.10
2018-03-16T17:11:48.859Z,20.10
2018-03-16T17:14:17.127Z,20.10
2018-03-16T17:16:45.400Z,20.00
2018-03-16T17:19:12.920Z,20.00
2018-03-16T17:21:40.424Z,20.00
2018-03-16T17:24:07.933Z,20.00
2018-03-16T17:26:35.447Z,20.00
2018-03-16T17:29:02.963Z,20.00
2018-03-16T17:31:30.474Z,20.00
2018-03-16T17:33:58.750Z,20.00
2018-03-16T17:36:26.268Z,20.00
2018-03-16T17:38:53.774Z,20.00
2018-03-16T17:41:21.289Z,20.00
2018-03-16T17:43:48.806Z,20.10
2018-03-16T17:46:16.318Z,20.20
2018-03-16T17:48:43.834Z,20.20
2018-03-16T17:51:11.368Z,20.10
2018-03-16T17:53:38.896Z,20.10
2018-03-16T17:56:06.398Z,20.10
2018-03-16T17:58:33.902Z,20.10
2018-03-16T18:01:02.177Z,20.10
2018-03-16T18:03:30.452Z,20.10
2018-03-16T18:05:57.970Z,20.10
2018-03-16T18:08:25.476Z,20.10
2018-03-16T18:10:52.990Z,20.10
2018-03-16T18:13:20.494Z,20.10
2018-03-16T18:15:47.997Z,20.00
2018-03-16T18:18:15.509Z,20.10
2018-03-16T18:20:43.028Z,20.00
2018-03-16T18:23:10.527Z,20.10
2018-03-16T18:25:38.118Z,20.10
2018-03-16T18:28:05.628Z,20.00
2018-03-16T18:30:33.138Z,20.10
2018-03-16T18:33:00.643Z,20.00
2018-03-16T18:35:28.151Z,20.00
2018-03-16T18:37:55.657Z,20.00
2018-03-16T18:40:23.178Z,20.00
2018-03-16T18:42:50.700Z,20.00
2018-03-16T18:45:18.203Z,20.00
2018-03-16T18:47:45.710Z,20.00
2018-03-16T18:50:13.991Z,20.10
2018-03-16T18:52:42.276Z,20.00
2018-03-16T18:55:09.803Z,20.00
2018-03-16T18:57:37.314Z,20.00
2018-03-16T19:00:04.823Z,20.00
2018-03-16T19:02:32.345Z,20.00
2018-03-16T19:04:59.851Z,20.00
2018-03-16T19:07:27.360Z,20.00
2018-03-16T19:09:54.874Z,20.00
2018-03-16T19:12:23.221Z,20.00
2018-03-16T19:14:50.735Z,20.00
2018-03-16T19:17:18.245Z,20.00
2018-03-16T19:19:45.773Z,20.00
2018-03-16T19:22:14.046Z,20.00
2018-03-16T19:24:41.544Z,20.00
2018-03-16T19:27:09.056Z,20.00
2018-03-16T19:29:36.566Z,20.00
2018-03-16T19:32:04.076Z,20.00
2018-03-16T19:34:31.581Z,20.00
2018-03-16T19:36:59.859Z,20.00
2018-03-16T19:39:28.143Z,20.00
2018-03-16T19:41:56.895Z,20.00
2018-03-16T19:44:24.423Z,20.00
2018-03-16T19:46:51.939Z,20.00
2018-03-16T19:49:19.533Z,20.00
2018-03-16T19:51:47.094Z,20.00
2018-03-16T19:54:14.608Z,20.00
2018-03-16T19:56:42.119Z,20.00
2018-03-16T19:59:09.638Z,20.00
2018-03-16T20:01:37.251Z,20.00
2018-03-16T20:04:04.809Z,20.00
2018-03-16T20:06:33.743Z,20.00
2018-03-16T20:09:01.276Z,20.00
2018-03-16T20:11:28.848Z,20.00
2018-03-16T20:13:56.394Z,19.90
2018-03-16T20:16:25.101Z,20.00
2018-03-16T20:18:52.668Z,20.00
2018-03-16T20:21:20.369Z,20.00
2018-03-16T20:23:47.884Z,20.00
2018-03-16T20:26:16.177Z,19.90
2018-03-16T20:28:43.850Z,20.00
2018-03-16T20:31:11.378Z,19.90
2018-03-16T20:33:39.672Z,19.90
2018-03-16T20:36:07.956Z,20.00
2018-03-16T20:38:36.231Z,20.00
2018-03-16T20:41:04.621Z,19.90
2018-03-16T20:43:32.146Z,19.90
2018-03-16T20:46:01.175Z,19.90
2018-03-16T20:48:29.596Z,19.90
2018-03-16T20:50:57.122Z,19.90
2018-03-16T20:53:25.399Z,19.90
2018-03-16T20:55:54.520Z,19.90
2018-03-16T20:58:22.051Z,19.90
2018-03-16T21:00:49.633Z,19.90
2018-03-16T21:03:17.145Z,19.90
2018-03-16T21:05:44.667Z,19.90
2018-03-16T21:08:12.174Z,19.90
2018-03-16T21:10:39.792Z,19.90
2018-03-16T21:13:07.357Z,19.90
2018-03-16T21:15:35.657Z,19.80
2018-03-16T21:18:03.178Z,19.90
2018-03-16T21:20:30.697Z,19.90
2018-03-16T21:22:58.209Z,19.90
2018-03-16T21:25:25.715Z,19.80
2018-03-16T21:27:53.581Z,19.90
2018-03-16T21:30:21.109Z,19.80
2018-03-16T21:32:49.396Z,19.80
2018-03-16T21:35:17.686Z,19.80
2018-03-16T21:37:45.964Z,19.80
2018-03-16T21:40:14.247Z,19.80
2018-03-16T21:42:42.532Z,19.80
2018-03-16T21:45:10.044Z,19.80
2018-03-16T21:47:37.548Z,19.80
2018-03-16T21:50:05.828Z,19.80
2018-03-16T21:52:34.105Z,19.80
2018-03-16T21:55:02.398Z,19.80
2018-03-16T21:57:29.913Z,19.80
2018-03-16T21:59:57.431Z,19.80
2018-03-16T22:02:24.944Z,19.80
2018-03-16T22:04:52.457Z,19.80
2018-03-16T22:07:19.967Z,19.80
2018-03-16T22:09:47.590Z,19.80
2018-03-16T22:12:15.144Z,19.80
2018-03-16T22:14:43.532Z,19.80
2018-03-16T22:17:11.052Z,19.80
2018-03-16T22:19:38.652Z,19.80
2018-03-16T22:22:07.050Z,19.80
2018-03-16T22:24:34.580Z,19.80
2018-03-16T22:27:02.864Z,19.80
2018-03-16T22:29:33.098Z,19.80
2018-03-16T22:32:01.383Z,19.70
2018-03-16T22:34:29.658Z,19.70
2018-03-16T22:36:57.932Z,19.70
2018-03-16T22:39:26.209Z,19.80
2018-03-16T22:41:53.719Z,19.70
2018-03-16T22:44:21.226Z,19.70
2018-03-16T22:46:48.741Z,19.70
2018-03-16T22:49:16.266Z,19.70
2018-03-16T22:51:44.556Z,19.90
2018-03-16T22:54:13.269Z,20.00
2018-03-16T22:56:40.790Z,19.90
2018-03-16T22:59:08.386Z,19.90
2018-03-16T23:01:35.904Z,19.90
2018-03-16T23:04:03.507Z,19.90
2018-03-16T23:06:31.785Z,19.80
2018-03-16T23:09:00.063Z,19.80
2018-03-16T23:11:28.456Z,19.80
2018-03-16T23:13:56.097Z,19.80
2018-03-16T23:16:24.452Z,19.80
2018-03-16T23:18:52.728Z,19.80
2018-03-16T23:21:20.244Z,19.70
2018-03-16T23:23:48.523Z,19.70
2018-03-16T23:26:16.799Z,19.70
2018-03-16T23:28:45.079Z,19.80
2018-03-16T23:31:13.357Z,19.70
2018-03-16T23:33:41.628Z,19.70
2018-03-16T23:36:09.136Z,19.70
2018-03-16T23:38:36.650Z,19.70
2018-03-16T23:41:04.163Z,19.70
2018-03-16T23:43:31.672Z,19.70
2018-03-16T23:45:59.190Z,19.70
2018-03-16T23:48:26.708Z,19.70
2018-03-16T23:50:54.501Z,19.70
2018-03-16T23:53:22.950Z,19.70
2018-03-16T23:55:50.466Z,19.70
2018-03-16T23:58:17.968Z,19.70
